This is the latest recevied weather packets stored in our database for station/object DM4WH-13. If no packets are shown the sender has not sent any weather packets the latest 10 day(s).
| Time | Temp. | Humidity | Pressure | Rain* | Wind** | Luminosity | Snow |
|---|---|---|---|---|---|---|---|
| 1777611011 | 5° C | 71% | 1031.4 hPa | 0 mm | 0 m/s | - | - |
| 1777610723 | 3.89° C | 76% | 1031.4 hPa | 0 mm | 0 m/s | - | - |
| 1777610411 | 2.78° C | 81% | 1031.3 hPa | 0 mm | 0 m/s | - | - |
| 1777610123 | 2.78° C | 83% | 1031.3 hPa | 0 mm | 0 m/s | - | - |
| 1777609811 | 2.22° C | 84% | 1031.3 hPa | 0 mm | 0 m/s | - | - |
| 1777609523 | 2.22° C | 86% | 1031.3 hPa | 0 mm | 0 m/s | - | - |
| 1777609211 | 2.22° C | 86% | 1031.3 hPa | 0 mm | 0 m/s | - | - |
| 1777608936 | 2.22° C | 86% | 1031.3 hPa | 0 mm | 0 m/s | - | - |
| 1777608623 | 2.22° C | 86% | 1031.3 hPa | 0 mm | 0 m/s | - | - |
| 1777608311 | 2.22° C | 87% | 1031.3 hPa | 0 mm | 0 m/s | - | - |
| 1777608024 | 2.22° C | 88% | 1031.3 hPa | 0 mm | 0 m/s | - | - |
| 1777607711 | 2.22° C | 88% | 1031.2 hPa | 0 mm | 0 m/s | - | - |
| 1777607423 | 1.11° C | 88% | 1031.2 hPa | 0 mm | 0 m/s | - | - |
| 1777607111 | 2.22° C | 87% | 1031.2 hPa | 0 mm | 0 m/s | - | - |
| 1777606823 | 2.22° C | 87% | 1031.2 hPa | 0 mm | 0 m/s | - | - |
| 1777606511 | 2.22° C | 85% | 1031.2 hPa | 0 mm | 0 m/s | - | - |
| 1777606224 | 2.22° C | 84% | 1031.2 hPa | 0 mm | 0 m/s | - | - |
| 1777605911 | 2.22° C | 85% | 1031.2 hPa | 0 mm | 0 m/s | - | - |
| 1777605624 | 2.22° C | 86% | 1031.2 hPa | 0 mm | 0 m/s | - | - |
| 1777605311 | 2.22° C | 86% | 1031.2 hPa | 0 mm | 0 m/s | - | - |
| 1777605023 | 2.22° C | 86% | 1031.2 hPa | 0 mm | 0 m/s | - | - |
| 1777604711 | 2.22° C | 86% | 1031.2 hPa | 0 mm | 0 m/s | - | - |
| 1777604423 | 2.22° C | 87% | 1031.2 hPa | 0 mm | 0.45 m/s, 192° | - | - |
| 1777604111 | 2.22° C | 88% | 1031.3 hPa | 0 mm | 0 m/s | - | - |
| 1777603823 | 2.22° C | 88% | 1031.3 hPa | 0 mm | 0 m/s | - | - |
* Rain latest hour (hover to see other rain measurements)
** Current wind speed in m/s (hover to see current wind gust speed)